createdAt,value
2019-05-01T00:01:48.721Z,18.90
2019-05-01T00:04:39.918Z,21.50
2019-05-01T00:07:21.192Z,20.63
2019-05-01T00:09:53.186Z,19.97
2019-05-01T00:12:25.249Z,20.50
2019-05-01T00:14:57.654Z,25.37
2019-05-01T00:17:31.339Z,23.70
2019-05-01T00:20:03.448Z,23.63
2019-05-01T00:22:35.452Z,24.90
2019-05-01T00:25:07.722Z,23.13
2019-05-01T00:27:39.799Z,24.40
2019-05-01T00:30:28.654Z,22.67
2019-05-01T00:32:49.780Z,24.83
2019-05-01T00:35:21.826Z,25.00
2019-05-01T00:37:53.789Z,24.83
2019-05-01T00:40:25.948Z,27.87
2019-05-01T00:42:57.974Z,26.93
2019-05-01T00:45:30.318Z,27.53
2019-05-01T00:48:02.318Z,25.90
2019-05-01T00:50:34.316Z,24.73
2019-05-01T00:53:06.466Z,26.37
2019-05-01T00:56:00.280Z,27.50
2019-05-01T00:58:54.150Z,27.00
2019-05-01T01:01:43.515Z,29.60
2019-05-01T01:04:18.034Z,28.60
2019-05-01T01:06:50.098Z,28.40
2019-05-01T01:09:22.351Z,29.37
2019-05-01T01:11:54.368Z,29.13
2019-05-01T01:14:26.316Z,30.27
2019-05-01T01:16:58.317Z,29.30
2019-05-01T01:19:30.792Z,28.37
2019-05-01T01:22:02.900Z,30.47
2019-05-01T01:24:34.958Z,28.60
2019-05-01T01:27:07.022Z,26.30
2019-05-01T01:29:39.002Z,26.90
2019-05-01T01:32:11.182Z,27.60
2019-05-01T01:34:43.176Z,28.50
2019-05-01T01:37:15.183Z,28.33
2019-05-01T01:39:47.588Z,30.70
2019-05-01T01:42:19.796Z,27.17
2019-05-01T01:45:16.529Z,28.03
2019-05-01T01:48:06.074Z,28.03
2019-05-01T01:50:38.660Z,28.73
2019-05-01T01:53:12.616Z,31.77
2019-05-01T01:55:44.960Z,30.90
2019-05-01T01:58:17.841Z,28.53
2019-05-01T02:01:14.663Z,26.10
2019-05-01T02:03:50.687Z,28.63
2019-05-01T02:06:22.751Z,28.17
2019-05-01T02:08:56.846Z,28.23
2019-05-01T02:11:29.084Z,29.07
2019-05-01T02:14:01.228Z,32.43
2019-05-01T02:16:33.274Z,34.63
2019-05-01T02:19:05.385Z,32.77
2019-05-01T02:21:37.410Z,34.27
2019-05-01T02:24:09.412Z,33.77
2019-05-01T02:26:45.414Z,34.30
2019-05-01T02:29:25.964Z,34.13
2019-05-01T02:31:58.787Z,35.57
2019-05-01T02:34:31.829Z,33.93
2019-05-01T02:37:05.486Z,35.50
2019-05-01T02:39:38.832Z,37.67
2019-05-01T02:42:14.067Z,36.33
2019-05-01T02:44:50.697Z,39.17
2019-05-01T02:47:28.023Z,38.63
2019-05-01T02:50:11.096Z,37.03
2019-05-01T02:52:45.075Z,40.20
2019-05-01T02:55:29.751Z,40.30
2019-05-01T02:58:02.346Z,35.70
2019-05-01T03:00:34.805Z,36.13
2019-05-01T03:03:07.050Z,37.13
2019-05-01T03:05:39.210Z,39.17
2019-05-01T03:08:11.680Z,36.97
2019-05-01T03:10:43.708Z,38.20
2019-05-01T03:13:15.847Z,38.37
2019-05-01T03:15:47.934Z,35.40
2019-05-01T03:18:32.126Z,34.63
2019-05-01T03:21:22.408Z,34.60
2019-05-01T03:24:02.521Z,33.93
2019-05-01T03:26:35.758Z,36.57
2019-05-01T03:29:08.729Z,34.67
2019-05-01T03:31:41.467Z,33.87
2019-05-01T03:34:13.747Z,33.17
2019-05-01T03:36:46.036Z,33.10
2019-05-01T03:39:19.104Z,32.63
2019-05-01T03:41:51.273Z,34.47
2019-05-01T03:44:23.304Z,34.30
2019-05-01T03:46:55.414Z,35.47
2019-05-01T03:49:28.303Z,32.23
2019-05-01T03:52:00.630Z,33.27
2019-05-01T03:54:33.477Z,32.33
2019-05-01T03:57:05.573Z,32.13
2019-05-01T03:59:38.250Z,32.73
2019-05-01T04:02:32.785Z,33.47
2019-05-01T04:04:54.521Z,31.23
2019-05-01T04:07:26.702Z,31.83
2019-05-01T04:09:58.854Z,29.00
2019-05-01T04:12:31.354Z,28.63
2019-05-01T04:15:03.436Z,27.57
2019-05-01T04:17:41.456Z,29.10
2019-05-01T04:20:13.916Z,28.07
2019-05-01T04:22:47.721Z,28.83
2019-05-01T04:25:20.227Z,26.87
2019-05-01T04:27:53.916Z,25.17
2019-05-01T04:30:45.190Z,24.70
2019-05-01T04:33:19.258Z,25.07
2019-05-01T04:36:15.507Z,23.37
2019-05-01T04:38:47.662Z,24.37
2019-05-01T04:41:20.165Z,23.97
2019-05-01T04:43:52.672Z,21.40
2019-05-01T04:46:25.777Z,22.13
2019-05-01T04:48:57.852Z,21.37
2019-05-01T04:51:30.623Z,21.40
2019-05-01T04:54:03.126Z,20.80
2019-05-01T04:56:35.294Z,21.43
2019-05-01T04:59:08.874Z,21.43
2019-05-01T05:02:03.471Z,22.03
2019-05-01T05:04:36.081Z,20.53
2019-05-01T05:07:08.660Z,19.60
2019-05-01T05:09:46.282Z,21.07
2019-05-01T05:12:36.747Z,19.67
2019-05-01T05:15:38.973Z,20.20
2019-05-01T05:18:12.152Z,21.30
2019-05-01T05:20:48.482Z,18.40
2019-05-01T05:23:21.100Z,19.60
2019-05-01T05:25:54.074Z,20.17
2019-05-01T05:28:28.906Z,16.63
2019-05-01T05:31:04.183Z,17.73
2019-05-01T05:33:37.816Z,17.83
2019-05-01T05:36:13.411Z,17.37
2019-05-01T05:38:55.083Z,19.00
2019-05-01T05:41:27.923Z,17.52
2019-05-01T05:44:01.322Z,15.63
2019-05-01T05:46:35.759Z,17.40
2019-05-01T05:49:08.292Z,15.03
2019-05-01T05:52:03.524Z,15.15
2019-05-01T05:54:59.581Z,13.62
2019-05-01T05:57:55.424Z,12.60
2019-05-01T06:00:39.110Z,12.95
2019-05-01T06:03:34.740Z,13.83
2019-05-01T06:06:14.538Z,11.78
2019-05-01T06:08:48.508Z,12.35
2019-05-01T06:11:36.454Z,11.35
2019-05-01T06:14:18.306Z,12.43
2019-05-01T06:17:03.060Z,11.93
2019-05-01T06:19:49.645Z,10.90
2019-05-01T06:22:35.744Z,11.10
2019-05-01T06:25:22.773Z,9.43
2019-05-01T06:27:53.821Z,10.63
2019-05-01T06:30:26.474Z,9.75
2019-05-01T06:32:58.468Z,10.10
2019-05-01T06:35:33.985Z,8.98
2019-05-01T06:38:11.605Z,8.15
2019-05-01T06:40:45.524Z,8.20
2019-05-01T06:43:50.455Z,7.55
2019-05-01T06:46:38.153Z,6.97
2019-05-01T06:49:24.369Z,7.22
2019-05-01T06:51:57.716Z,8.95
2019-05-01T06:54:33.486Z,7.08
2019-05-01T06:57:06.754Z,6.75
2019-05-01T06:59:40.146Z,6.30
2019-05-01T07:02:16.087Z,7.35
2019-05-01T07:04:51.008Z,6.85
2019-05-01T07:07:25.672Z,7.03
2019-05-01T07:09:59.334Z,12.07
2019-05-01T07:12:33.552Z,8.70
2019-05-01T07:15:07.357Z,9.00
2019-05-01T07:17:39.522Z,8.58
2019-05-01T07:20:29.211Z,10.53
2019-05-01T07:23:01.542Z,9.83
2019-05-01T07:25:38.983Z,7.50
2019-05-01T07:28:10.412Z,7.20
2019-05-01T07:30:50.006Z,6.20
2019-05-01T07:33:22.813Z,6.28
2019-05-01T07:35:55.327Z,9.93
2019-05-01T07:38:27.492Z,7.67
2019-05-01T07:41:03.480Z,7.05
2019-05-01T07:44:05.757Z,6.35
2019-05-01T07:46:48.823Z,5.90
2019-05-01T07:49:26.664Z,6.70
2019-05-01T07:52:01.580Z,7.75
2019-05-01T07:54:32.755Z,6.50
2019-05-01T07:57:04.944Z,4.92
2019-05-01T07:59:37.141Z,5.58
2019-05-01T08:02:12.555Z,6.15
2019-05-01T08:04:44.506Z,7.17
2019-05-01T08:07:16.676Z,7.35
2019-05-01T08:09:50.318Z,6.95
2019-05-01T08:12:23.941Z,5.75
2019-05-01T08:14:56.201Z,8.28
2019-05-01T08:17:30.195Z,7.50
2019-05-01T08:20:39.426Z,6.97
2019-05-01T08:23:12.116Z,7.22
2019-05-01T08:25:45.293Z,7.78
2019-05-01T08:28:22.703Z,6.35
2019-05-01T08:31:23.059Z,6.42
2019-05-01T08:34:03.544Z,6.28
2019-05-01T08:36:35.555Z,6.15
2019-05-01T08:39:09.450Z,8.13
2019-05-01T08:41:42.506Z,8.10
2019-05-01T08:44:14.629Z,7.47
2019-05-01T08:46:58.564Z,8.68
2019-05-01T08:49:58.735Z,6.60
2019-05-01T08:52:31.392Z,6.83
2019-05-01T08:55:04.193Z,5.87
2019-05-01T08:57:39.307Z,9.45
2019-05-01T09:00:11.557Z,6.35
2019-05-01T09:02:43.565Z,10.53
2019-05-01T09:05:28.255Z,8.30
2019-05-01T09:07:51.151Z,10.13
2019-05-01T09:10:23.456Z,9.25
2019-05-01T09:12:55.463Z,10.28
2019-05-01T09:15:27.740Z,11.38
2019-05-01T09:17:59.740Z,12.25
2019-05-01T09:20:33.209Z,12.23
2019-05-01T09:23:05.173Z,12.10
2019-05-01T09:25:43.380Z,13.90
2019-05-01T09:28:21.872Z,13.45
2019-05-01T09:31:01.629Z,14.78
2019-05-01T09:33:32.040Z,14.65
2019-05-01T09:36:04.228Z,12.25
2019-05-01T09:38:36.432Z,13.85
2019-05-01T09:41:08.541Z,14.83
2019-05-01T09:43:40.666Z,16.15
2019-05-01T09:46:12.767Z,13.03
2019-05-01T09:48:45.447Z,13.88
2019-05-01T09:51:35.122Z,15.00
2019-05-01T09:54:31.941Z,13.85
2019-05-01T09:57:03.972Z,15.00
2019-05-01T09:59:35.971Z,18.17
2019-05-01T10:02:09.147Z,17.10
2019-05-01T10:04:41.331Z,16.35
2019-05-01T10:07:13.399Z,18.45
2019-05-01T10:09:47.266Z,20.52
2019-05-01T10:12:19.255Z,21.50
2019-05-01T10:14:51.310Z,25.25
2019-05-01T10:17:23.264Z,24.80
2019-05-01T10:19:55.240Z,23.35
2019-05-01T10:22:27.225Z,22.10
2019-05-01T10:24:59.187Z,22.05
2019-05-01T10:27:35.780Z,23.90
2019-05-01T10:30:31.733Z,23.12
2019-05-01T10:33:05.955Z,22.60
2019-05-01T10:36:02.775Z,24.70
2019-05-01T10:38:34.742Z,23.70
2019-05-01T10:41:09.140Z,19.25
2019-05-01T10:43:41.175Z,21.62
2019-05-01T10:46:13.150Z,21.82
2019-05-01T10:48:45.184Z,22.15
2019-05-01T10:51:19.880Z,26.50
2019-05-01T10:53:53.338Z,27.75
2019-05-01T10:56:25.331Z,21.48
2019-05-01T10:58:57.276Z,21.75
2019-05-01T11:01:48.696Z,20.40
2019-05-01T11:04:20.843Z,15.45
2019-05-01T11:06:52.912Z,15.10
2019-05-01T11:09:24.877Z,13.48
2019-05-01T11:11:56.920Z,11.57
2019-05-01T11:14:28.939Z,9.30
2019-05-01T11:17:01.289Z,7.47
2019-05-01T11:19:33.302Z,5.05
2019-05-01T11:22:05.249Z,4.47
2019-05-01T11:24:37.476Z,4.83
2019-05-01T11:27:09.495Z,3.50
2019-05-01T11:29:41.686Z,3.42
2019-05-01T11:32:35.480Z,3.90
2019-05-01T11:35:30.211Z,3.50
2019-05-01T11:38:10.861Z,5.78
2019-05-01T11:40:47.083Z,4.60
2019-05-01T11:43:19.030Z,5.42
2019-05-01T11:45:51.172Z,4.42
2019-05-01T11:48:25.163Z,5.37
2019-05-01T11:50:56.851Z,5.10
2019-05-01T11:53:29.111Z,6.08
2019-05-01T11:56:01.638Z,5.10
2019-05-01T11:58:33.622Z,7.22
2019-05-01T12:01:07.200Z,5.47
2019-05-01T12:03:39.176Z,4.75
2019-05-01T12:06:22.372Z,5.05
2019-05-01T12:08:44.883Z,5.62
2019-05-01T12:11:18.664Z,5.77
2019-05-01T12:13:51.032Z,7.03
2019-05-01T12:16:40.508Z,5.78
2019-05-01T12:19:12.962Z,5.37
2019-05-01T12:21:44.956Z,5.13
2019-05-01T12:24:16.922Z,5.23
2019-05-01T12:26:48.932Z,4.80
2019-05-01T12:29:21.200Z,4.90
2019-05-01T12:31:53.194Z,5.17
2019-05-01T12:34:25.199Z,4.87
2019-05-01T12:37:17.610Z,4.70
2019-05-01T12:39:49.682Z,5.90
2019-05-01T12:42:23.101Z,5.33
2019-05-01T12:44:55.097Z,5.43
2019-05-01T12:47:46.499Z,5.20
2019-05-01T12:50:18.884Z,5.40
2019-05-01T12:53:04.190Z,5.53
2019-05-01T12:56:04.416Z,5.47
2019-05-01T12:58:37.644Z,6.07
2019-05-01T13:01:09.669Z,5.70
2019-05-01T13:03:41.651Z,5.90
2019-05-01T13:06:14.486Z,6.43
2019-05-01T13:08:46.566Z,5.43
2019-05-01T13:11:18.535Z,6.37
2019-05-01T13:13:50.885Z,9.00
2019-05-01T13:16:22.862Z,5.87
2019-05-01T13:18:54.842Z,5.90
2019-05-01T13:21:26.901Z,5.60
2019-05-01T13:23:58.860Z,5.67
2019-05-01T13:26:52.026Z,5.30
2019-05-01T13:29:35.198Z,6.43
2019-05-01T13:32:24.831Z,6.35
2019-05-01T13:34:56.939Z,6.13
2019-05-01T13:37:28.904Z,5.62
2019-05-01T13:40:01.277Z,5.97
2019-05-01T13:42:33.224Z,6.13
2019-05-01T13:45:05.587Z,6.13
2019-05-01T13:47:37.609Z,5.90
2019-05-01T13:50:10.519Z,5.20
2019-05-01T13:52:42.525Z,6.33
2019-05-01T13:55:15.061Z,5.77
2019-05-01T13:57:47.170Z,6.17
2019-05-01T14:00:21.007Z,5.90
2019-05-01T14:02:52.991Z,5.77
2019-05-01T14:05:25.311Z,6.10
2019-05-01T14:07:57.308Z,7.70
2019-05-01T14:10:29.361Z,5.53
2019-05-01T14:13:01.405Z,6.37
2019-05-01T14:15:33.442Z,6.30
2019-05-01T14:18:05.523Z,5.50
2019-05-01T14:20:59.139Z,6.17
2019-05-01T14:23:42.404Z,6.63
2019-05-01T14:26:14.468Z,6.60
2019-05-01T14:28:46.426Z,5.70
2019-05-01T14:31:18.395Z,5.57
2019-05-01T14:33:50.420Z,5.80
2019-05-01T14:36:22.381Z,6.00
2019-05-01T14:38:54.365Z,6.83
2019-05-01T14:41:26.334Z,6.33
2019-05-01T14:43:58.365Z,6.77
2019-05-01T14:46:30.617Z,5.83
2019-05-01T14:49:02.585Z,6.50
2019-05-01T14:51:34.581Z,6.70
2019-05-01T14:54:06.756Z,6.10
2019-05-01T14:56:38.726Z,6.77
2019-05-01T14:59:11.112Z,6.30
2019-05-01T15:01:43.090Z,6.37
2019-05-01T15:04:15.030Z,6.50
2019-05-01T15:06:47.029Z,6.40
2019-05-01T15:09:19.019Z,6.50
2019-05-01T15:11:51.310Z,6.17
2019-05-01T15:14:47.983Z,6.37
2019-05-01T15:17:29.312Z,6.63
2019-05-01T15:20:03.764Z,6.37
2019-05-01T15:22:35.792Z,6.77
2019-05-01T15:25:09.314Z,5.60
2019-05-01T15:27:41.320Z,5.90
2019-05-01T15:30:18.981Z,6.20
2019-05-01T15:32:51.215Z,6.17
2019-05-01T15:35:23.197Z,6.97
2019-05-01T15:37:56.752Z,6.50
2019-05-01T15:40:37.726Z,6.40
2019-05-01T15:43:47.308Z,6.47
2019-05-01T15:46:19.404Z,6.50
2019-05-01T15:48:51.347Z,7.37
2019-05-01T15:51:23.343Z,7.10
2019-05-01T15:53:55.464Z,7.40
2019-05-01T15:56:27.426Z,6.90
2019-05-01T15:58:59.407Z,7.10
2019-05-01T16:01:31.350Z,6.83
2019-05-01T16:04:03.374Z,6.77
2019-05-01T16:06:35.352Z,6.70
2019-05-01T16:09:08.629Z,6.17
2019-05-01T16:12:11.391Z,6.20
2019-05-01T16:14:49.419Z,5.73
2019-05-01T16:17:21.376Z,7.27
2019-05-01T16:19:53.351Z,6.70
2019-05-01T16:22:25.358Z,7.20
2019-05-01T16:24:57.328Z,7.10
2019-05-01T16:27:29.328Z,7.07
2019-05-01T16:30:01.344Z,7.70
2019-05-01T16:32:33.305Z,8.07
2019-05-01T16:35:06.255Z,7.37
2019-05-01T16:37:38.707Z,7.10
2019-05-01T16:40:38.746Z,7.80
2019-05-01T16:43:12.272Z,7.13
2019-05-01T16:45:44.322Z,11.77
2019-05-01T16:48:16.320Z,8.90
2019-05-01T16:50:48.364Z,8.87
2019-05-01T16:53:20.717Z,9.40
2019-05-01T16:55:52.705Z,8.93
2019-05-01T16:58:25.099Z,8.80
2019-05-01T17:01:07.512Z,8.60
2019-05-01T17:04:07.357Z,8.07
2019-05-01T17:07:01.407Z,7.73
2019-05-01T17:10:10.537Z,7.63
2019-05-01T17:12:47.269Z,8.80
2019-05-01T17:15:27.955Z,9.00
2019-05-01T17:18:00.381Z,9.27
2019-05-01T17:20:32.487Z,8.97
2019-05-01T17:23:05.697Z,10.10
2019-05-01T17:25:38.112Z,9.83
2019-05-01T17:28:10.089Z,9.90
2019-05-01T17:30:46.600Z,9.83
2019-05-01T17:33:20.792Z,10.43
2019-05-01T17:35:52.490Z,10.13
2019-05-01T17:38:24.671Z,10.43
2019-05-01T17:40:56.725Z,10.87
2019-05-01T17:43:28.755Z,11.53
2019-05-01T17:46:01.128Z,10.97
2019-05-01T17:48:33.727Z,14.27
2019-05-01T17:51:07.048Z,16.03
2019-05-01T17:53:39.126Z,16.97
2019-05-01T17:56:15.231Z,17.53
2019-05-01T17:58:44.907Z,16.77
2019-05-01T18:01:37.242Z,16.80
2019-05-01T18:04:23.473Z,15.90
2019-05-01T18:06:55.641Z,18.27
2019-05-01T18:09:27.584Z,18.97
2019-05-01T18:11:59.661Z,26.33
2019-05-01T18:14:31.652Z,23.03
2019-05-01T18:17:03.865Z,21.90
2019-05-01T18:19:35.918Z,21.17
2019-05-01T18:22:18.460Z,21.27
2019-05-01T18:25:10.119Z,20.43
2019-05-01T18:27:59.484Z,24.77
2019-05-01T18:30:36.130Z,22.97
2019-05-01T18:33:08.144Z,27.83
2019-05-01T18:35:40.517Z,29.17
2019-05-01T18:38:31.340Z,30.50
2019-05-01T18:41:22.176Z,27.70
2019-05-01T18:43:54.217Z,28.70
2019-05-01T18:46:26.450Z,30.47
2019-05-01T18:48:58.578Z,28.87
2019-05-01T18:51:30.622Z,27.83
2019-05-01T18:54:02.737Z,31.00
2019-05-01T18:56:38.166Z,34.43
2019-05-01T18:59:08.640Z,35.43
2019-05-01T19:01:43.883Z,34.67
2019-05-01T19:04:18.404Z,35.50
2019-05-01T19:06:48.531Z,34.10
2019-05-01T19:09:29.665Z,31.90
2019-05-01T19:11:54.898Z,31.93
2019-05-01T19:14:30.621Z,31.73
2019-05-01T19:17:02.509Z,32.47
2019-05-01T19:19:34.538Z,26.97
2019-05-01T19:22:06.923Z,23.37
2019-05-01T19:24:40.146Z,21.73
2019-05-01T19:27:14.320Z,20.57
2019-05-01T19:29:46.651Z,19.67
2019-05-01T19:32:20.297Z,16.67
2019-05-01T19:34:52.454Z,15.67
2019-05-01T19:37:28.188Z,14.47
2019-05-01T19:39:58.373Z,13.13
2019-05-01T19:42:30.699Z,11.00
2019-05-01T19:45:02.732Z,10.90
2019-05-01T19:47:34.788Z,12.40
2019-05-01T19:50:09.482Z,16.27
2019-05-01T19:52:41.840Z,14.47
2019-05-01T19:55:13.945Z,16.97
2019-05-01T19:57:45.912Z,15.07
2019-05-01T20:00:40.518Z,14.77
2019-05-01T20:03:12.542Z,12.17
2019-05-01T20:05:44.682Z,14.43
2019-05-01T20:08:16.749Z,16.27
2019-05-01T20:10:48.815Z,22.63
2019-05-01T20:13:21.132Z,25.50
2019-05-01T20:15:53.341Z,23.30
2019-05-01T20:18:25.502Z,31.83
2019-05-01T20:20:57.500Z,29.33
2019-05-01T20:23:31.243Z,22.70
2019-05-01T20:26:03.912Z,16.63
2019-05-01T20:28:37.403Z,14.67
2019-05-01T20:31:09.641Z,13.97
2019-05-01T20:33:44.414Z,14.50
2019-05-01T20:36:15.277Z,13.27
2019-05-01T20:38:47.262Z,14.53
2019-05-01T20:41:19.293Z,13.90
2019-05-01T20:43:51.455Z,15.17
2019-05-01T20:46:26.250Z,14.10
2019-05-01T20:49:01.004Z,15.03
2019-05-01T20:51:31.236Z,14.07
2019-05-01T20:54:03.258Z,14.07
2019-05-01T20:56:44.235Z,17.27
2019-05-01T20:59:16.227Z,17.30
2019-05-01T21:01:48.432Z,17.57
2019-05-01T21:04:43.127Z,17.10
2019-05-01T21:07:19.912Z,15.83
2019-05-01T21:09:56.830Z,17.63
2019-05-01T21:12:25.750Z,16.03
2019-05-01T21:14:57.765Z,16.60
2019-05-01T21:17:29.694Z,16.90
2019-05-01T21:20:03.721Z,17.30
2019-05-01T21:22:35.635Z,16.97
2019-05-01T21:25:07.722Z,20.40
2019-05-01T21:27:40.163Z,19.63
2019-05-01T21:30:13.883Z,17.87
2019-05-01T21:32:45.928Z,19.00
2019-05-01T21:35:17.930Z,20.43
2019-05-01T21:37:50.284Z,20.13
2019-05-01T21:40:23.017Z,19.37
2019-05-01T21:42:55.863Z,19.20
2019-05-01T21:45:28.068Z,19.60
2019-05-01T21:48:00.036Z,21.10
2019-05-01T21:50:33.568Z,20.03
2019-05-01T21:53:06.965Z,24.70
2019-05-01T21:55:39.303Z,24.33
2019-05-01T21:58:11.309Z,21.83
2019-05-01T22:00:43.831Z,21.67
2019-05-01T22:03:16.601Z,18.83
2019-05-01T22:05:50.332Z,19.73
2019-05-01T22:08:22.305Z,19.33
2019-05-01T22:10:57.623Z,17.93
2019-05-01T22:13:28.165Z,18.00
2019-05-01T22:16:06.709Z,17.27
2019-05-01T22:18:57.545Z,19.67
2019-05-01T22:22:06.381Z,20.47
2019-05-01T22:24:57.317Z,20.43
2019-05-01T22:27:37.152Z,18.77
2019-05-01T22:30:21.347Z,21.07
2019-05-01T22:32:53.783Z,22.33
2019-05-01T22:35:27.622Z,21.33
2019-05-01T22:37:59.579Z,22.67
2019-05-01T22:40:49.290Z,22.63
2019-05-01T22:43:21.441Z,25.00
2019-05-01T22:45:56.193Z,28.43
2019-05-01T22:48:27.148Z,31.30
2019-05-01T22:51:03.797Z,29.33
2019-05-01T22:53:35.757Z,32.10
2019-05-01T22:56:07.813Z,31.00
2019-05-01T22:58:39.783Z,35.00
2019-05-01T23:01:13.391Z,34.27
2019-05-01T23:03:52.739Z,34.30
2019-05-01T23:06:24.737Z,38.47
2019-05-01T23:08:56.708Z,35.77
2019-05-01T23:11:30.937Z,37.77
2019-05-01T23:14:03.048Z,36.83
2019-05-01T23:16:40.692Z,37.87
2019-05-01T23:19:12.775Z,38.93
2019-05-01T23:21:45.898Z,37.87
2019-05-01T23:24:18.699Z,38.77
2019-05-01T23:26:53.007Z,40.60
2019-05-01T23:29:25.103Z,41.90
2019-05-01T23:31:57.454Z,37.47
2019-05-01T23:34:29.435Z,39.33
2019-05-01T23:37:01.383Z,38.57
2019-05-01T23:39:39.713Z,42.87
2019-05-01T23:42:07.031Z,40.20
2019-05-01T23:44:42.919Z,42.87
2019-05-01T23:47:12.649Z,40.97
2019-05-01T23:49:47.724Z,41.17
2019-05-01T23:52:18.461Z,41.90
2019-05-01T23:54:51.489Z,40.17
2019-05-01T23:57:23.677Z,41.33
2019-05-01T23:59:55.765Z,44.10
